Terminal Aerodrome Forecast
Issued by NWS

Home | Current Version | Previous Version | Text Only | Print | Product List | Glossary On
Versions: 1 2 3 4 5 6 7 8 9 10 11 12 13 14 15 16 17 18 19
000
FTUS43 KIND 230811 AAA
TAFHUF
TAF AMD
KHUF 230811Z 2308/2406 10007KT P6SM SCT100 BKN250
     FM231500 13010KT P6SM BKN120
     FM232100 16009KT P6SM BKN070
     FM240300 16011KT P6SM BKN140 WS020/19040KT=

USA.gov is the U.S. government's official web portal to all federal, state and local government web resources and services.